Fruitvale, TN (38336)

23:09 CST le 22 février 2017 (GMT -0600)
North Jackson, Walker Rd | | Change Station

Alt. 457 ft 35.69 °N, 88.86 °W | Updated 20 seconds ago

Ciel dégagé
Ciel dégagé
59.3 ° F
Paraît 59.3 ° F
N
2.0
Vent Variable Vent de Sud

Aujourd'hui
Haut(e) -- | Bas -- ° F
--% Risque de précip.
Hier
Haut(e) -- | Bas -- ° F
Precip. -- pouce
Pression 29.82 pouce
Visibilité 10.0 Miles terrestres
Nuages Ciel dégagé
Point de rosée 56 ° F
Humidité 90%
Précipitations 0.00 pouce
Profondeur de la couche neigeuse Non disponible.
6:34 AM 5:45 PM
Lune descendante, 13% visible
METAR KMKL 230453Z AUTO 17004KT 10SM CLR 16/14 A2983 RMK AO2 SLP098 T01610139
Pression 29.82 pouce
Visibilité 10.0 Miles terrestres
Nuages Ciel dégagé
Point de rosée 56 ° F
Humidité 90%
Précipitations 0.00 pouce
Profondeur de la couche neigeuse Non disponible.
6:34 AM 5:45 PM
Lune descendante, 13% visible
METAR KMKL 230453Z AUTO 17004KT 10SM CLR 16/14 A2983 RMK AO2 SLP098 T01610139

Get Your Daily Forecast Email!

Thanks for signing up!

Be on the lookout for a verification email in your inbox.

You'll start receiving the daily forecast at 8 AM.

×

10-Day Weather Forecast

Almanac

Astronomie

Feb. 22, 2017 Lever Coucher
Temps réel
Crépuscule civil
Crépuscule nautique
Crépuscule astronomique
Lune
Durée de lumière visible
Longueur du jour
Tomorrow will be .
, % of the Moon is Illuminated

Extrêmes aujourd'hui

State Highs State Lows

Community

WunderPhotos

Upload Photos

1,962,540 Photos téléchargées !

WunderBlog® & News

Nearby

Qualité de l'air

  Qualité de l'air Indice de la qualité de l'air Polluant
Not available.

Épaisseur de neige

Station Depth Altitude

Activité sismique

Ville Distance Mag. Time & Date
Minimum magnitude displayed is 2.5.

Températures des eaux côtières

Lieu Température

Stations

Stations météo à proximité

Emplacement de la station Température Refroidissement éolien Point de rosée Humidité Vent Precip. Alt. Mise à jour Type
                   

Watches & Warnings

There are currently no watches in effect.